Time;durP1;ratioP1;P1;durP2;ratioP2;P2;SDS_P1;SDS_P2;PMS_P1;PMS_P2;Temp;Humidity;BMP_temperature;BMP_pressure;BME280_temperature;BME280_humidity;BME280_pressure;Samples;Min_cycle;Max_cycle;Signal;HPM_P1;HPM_P2
2023/03/06 00:01:39;;;;;;;2.30;2.15;;;;;;;;;;5049033;28;20465;-71
2023/03/06 00:04:07;;;;;;;0.32;0.32;;;;;;;;;;5048913;28;20426;-69
2023/03/06 00:06:33;;;;;;;0.40;0.40;;;;;;;;;;5048979;28;20057;-72
2023/03/06 00:08:58;;;;;;;2.95;1.77;;;;;;;;;;5048953;28;20045;-69
2023/03/06 00:11:23;;;;;;;2.40;2.30;;;;;;;;;;5047759;28;20116;-68
2023/03/06 00:13:49;;;;;;;1.63;1.52;;;;;;;;;;5047928;28;20033;-70
2023/03/06 00:16:14;;;;;;;4.82;4.53;;;;;;;;;;5052209;28;20036;-70
2023/03/06 00:18:42;;;;;;;4.47;2.58;;;;;;;;;;5056448;28;20032;-70
2023/03/06 00:21:08;;;;;;;0.43;0.43;;;;;;;;;;5056295;28;20502;-70
2023/03/06 00:23:35;;;;;;;1.27;1.08;;;;;;;;;;5056061;28;20029;-70
2023/03/06 00:26:00;;;;;;;0.52;0.47;;;;;;;;;;5056397;28;20443;-70
2023/03/06 00:28:26;;;;;;;1.63;1.52;;;;;;;;;;5056376;28;20063;-70
2023/03/06 00:30:51;;;;;;;0.80;0.80;;;;;;;;;;5056583;28;20108;-71
2023/03/06 00:33:16;;;;;;;0.30;0.30;;;;;;;;;;5056016;28;20386;-71
2023/03/06 00:35:42;;;;;;;0.43;0.43;;;;;;;;;;5054671;28;20032;-70
2023/03/06 00:38:09;;;;;;;2.92;2.40;;;;;;;;;;5054921;28;20029;-70
2023/03/06 00:40:35;;;;;;;2.33;2.22;;;;;;;;;;5054812;28;20017;-70
2023/03/06 00:43:00;;;;;;;0.40;0.40;;;;;;;;;;5054888;28;20039;-70
2023/03/06 00:45:26;;;;;;;3.35;3.15;;;;;;;;;;5055937;28;20350;-70
2023/03/06 00:47:51;;;;;;;0.20;0.20;;;;;;;;;;5055897;28;20029;-69
2023/03/06 00:50:16;;;;;;;0.30;0.30;;;;;;;;;;5055666;28;20020;-70
2023/03/06 00:52:42;;;;;;;0.40;0.40;;;;;;;;;;5055799;28;20385;-70
2023/03/06 00:55:08;;;;;;;0.70;0.70;;;;;;;;;;5055042;28;20032;-69
2023/03/06 00:57:33;;;;;;;0.50;0.50;;;;;;;;;;5039213;28;20033;-70
2023/03/06 00:59:59;;;;;;;0.30;0.30;;;;;;;;;;5055968;28;20036;-70
2023/03/06 01:02:24;;;;;;;3.25;1.95;;;;;;;;;;5055691;28;20377;-70
2023/03/06 01:04:52;;;;;;;0.40;0.40;;;;;;;;;;5054057;28;20079;-70
2023/03/06 01:07:18;;;;;;;2.08;1.60;;;;;;;;;;5054401;28;20033;-70
2023/03/06 01:09:43;;;;;;;1.20;1.13;;;;;;;;;;5054359;28;20035;-70
2023/03/06 01:12:09;;;;;;;0.20;0.20;;;;;;;;;;5054374;28;20405;-70
2023/03/06 01:14:34;;;;;;;0.20;0.20;;;;;;;;;;5054218;28;20028;-71
2023/03/06 01:17:00;;;;;;;0.20;0.20;;;;;;;;;;5055224;28;20024;-70
2023/03/06 01:19:26;;;;;;;0.10;0.10;;;;;;;;;;5055207;28;20033;-71
2023/03/06 01:21:51;;;;;;;0.65;0.65;;;;;;;;;;5053894;28;20025;-70
2023/03/06 01:24:16;;;;;;;0.20;0.20;;;;;;;;;;5055135;28;20111;-71
2023/03/06 01:26:42;;;;;;;0.30;0.30;;;;;;;;;;5054862;28;20500;-71
2023/03/06 01:29:07;;;;;;;1.30;1.20;;;;;;;;;;5053991;28;20074;-72
2023/03/06 01:31:33;;;;;;;0.30;0.30;;;;;;;;;;5053783;28;20068;-72
2023/03/06 01:33:58;;;;;;;2.45;2.28;;;;;;;;;;5053890;28;20509;-72
2023/03/06 01:36:23;;;;;;;0.43;0.43;;;;;;;;;;5053578;28;20485;-71
2023/03/06 01:38:49;;;;;;;1.10;1.10;;;;;;;;;;5055081;28;20021;-72
2023/03/06 01:41:15;;;;;;;1.80;1.70;;;;;;;;;;5056595;28;20534;-72
2023/03/06 01:43:42;;;;;;;0.25;0.25;;;;;;;;;;5074771;28;20024;-70
2023/03/06 01:46:17;;;;;;;4.45;4.15;;;;;;;;;;5073567;28;20033;-72
2023/03/06 01:48:43;;;;;;;0.28;0.28;;;;;;;;;;5074613;28;20472;-72
2023/03/06 01:51:09;;;;;;;0.60;0.60;;;;;;;;;;5056987;28;20425;-72
2023/03/06 01:53:35;;;;;;;0.63;0.63;;;;;;;;;;5073645;28;20071;-71
2023/03/06 01:56:01;;;;;;;0.10;0.10;;;;;;;;;;5073561;28;20023;-71
2023/03/06 01:58:27;;;;;;;0.20;0.20;;;;;;;;;;5073333;28;20501;-71
2023/03/06 02:00:52;;;;;;;0.55;0.55;;;;;;;;;;5073275;28;20039;-71
2023/03/06 02:03:20;;;;;;;1.95;1.85;;;;;;;;;;5074353;28;20476;-71
2023/03/06 02:05:46;;;;;;;0.10;0.10;;;;;;;;;;5073176;28;20031;-72
2023/03/06 02:08:13;;;;;;;0.28;0.28;;;;;;;;;;5074348;28;20028;-71
2023/03/06 02:10:49;;;;;;;0.20;0.20;;;;;;;;;;5073149;28;20028;-72
2023/03/06 02:13:14;;;;;;;0.30;0.30;;;;;;;;;;5073255;28;20539;-71
2023/03/06 02:15:40;;;;;;;0.20;0.20;;;;;;;;;;5074007;28;20043;-72
2023/03/06 02:18:05;;;;;;;2.60;2.00;;;;;;;;;;5072686;28;20037;-72
2023/03/06 02:20:34;;;;;;;0.10;0.10;;;;;;;;;;5068757;28;20032;-72
2023/03/06 02:23:11;;;;;;;1.42;1.38;;;;;;;;;;5053007;28;20029;-71
2023/03/06 02:25:42;;;;;;;0.10;0.10;;;;;;;;;;5053975;28;20049;-73
2023/03/06 02:28:10;;;;;;;0.10;0.10;;;;;;;;;;5052982;28;20043;-72
2023/03/06 02:30:37;;;;;;;1.83;1.73;;;;;;;;;;5053824;28;20558;-73
2023/03/06 02:33:03;;;;;;;3.10;2.90;;;;;;;;;;5052656;28;20073;-73
2023/03/06 02:35:29;;;;;;;0.30;0.30;;;;;;;;;;5054049;28;20044;-72
2023/03/06 02:38:01;;;;;;;0.30;0.30;;;;;;;;;;5052030;28;20538;-72
2023/03/06 02:40:27;;;;;;;0.70;0.70;;;;;;;;;;5053960;28;20377;-72
2023/03/06 02:42:56;;;;;;;0.20;0.20;;;;;;;;;;5053701;28;20021;-72
2023/03/06 02:45:44;;;;;;;0.30;0.30;;;;;;;;;;5052154;28;20588;-72
2023/03/06 02:48:10;;;;;;;0.10;0.10;;;;;;;;;;5035952;28;20024;-69
2023/03/06 02:50:36;;;;;;;0.10;0.10;;;;;;;;;;5053763;28;20025;-70
2023/03/06 02:53:02;;;;;;;0.10;0.10;;;;;;;;;;5052494;28;20021;-71
2023/03/06 02:55:29;;;;;;;0.30;0.30;;;;;;;;;;5052262;28;20021;-70
2023/03/06 02:57:54;;;;;;;0.20;0.20;;;;;;;;;;5053295;28;20037;-71
2023/03/06 03:00:20;;;;;;;0.20;0.20;;;;;;;;;;5052456;28;20025;-72
2023/03/06 03:02:45;;;;;;;0.20;0.20;;;;;;;;;;5052317;28;20594;-73
2023/03/06 03:05:11;;;;;;;3.47;2.45;;;;;;;;;;5053446;28;20037;-72
2023/03/06 03:07:40;;;;;;;2.92;2.05;;;;;;;;;;5052165;28;20033;-73
2023/03/06 03:10:07;;;;;;;0.82;0.77;;;;;;;;;;5052198;28;20387;-72
2023/03/06 03:12:32;;;;;;;0.10;0.10;;;;;;;;;;5053212;28;20112;-73
2023/03/06 03:14:58;;;;;;;0.32;0.32;;;;;;;;;;5052599;28;20143;-72
2023/03/06 03:17:23;;;;;;;1.80;0.77;;;;;;;;;;5052264;28;20032;-72
2023/03/06 03:19:48;;;;;;;2.10;1.13;;;;;;;;;;5053386;28;20032;-72
2023/03/06 03:22:15;;;;;;;0.95;0.80;;;;;;;;;;5053280;28;20056;-71
2023/03/06 03:24:41;;;;;;;0.40;0.40;;;;;;;;;;5053090;28;20520;-70
2023/03/06 03:27:07;;;;;;;1.55;1.15;;;;;;;;;;5035429;28;20029;-70
2023/03/06 03:29:32;;;;;;;0.20;0.20;;;;;;;;;;5052008;28;20029;-70
2023/03/06 03:31:58;;;;;;;0.10;0.10;;;;;;;;;;5053050;28;20600;-71
2023/03/06 03:34:25;;;;;;;0.40;0.40;;;;;;;;;;5051946;28;20036;-71
2023/03/06 03:36:51;;;;;;;0.52;0.52;;;;;;;;;;5051837;28;20071;-71
2023/03/06 03:39:17;;;;;;;0.57;0.57;;;;;;;;;;5051786;28;20484;-69
2023/03/06 03:41:43;;;;;;;1.27;1.25;;;;;;;;;;5052853;28;20380;-71
2023/03/06 03:44:09;;;;;;;0.20;0.20;;;;;;;;;;5035691;28;20075;-70
2023/03/06 03:46:35;;;;;;;0.10;0.10;;;;;;;;;;5051803;28;20079;-70
2023/03/06 03:49:01;;;;;;;0.68;0.55;;;;;;;;;;5051691;28;20535;-72
2023/03/06 03:51:27;;;;;;;0.13;0.13;;;;;;;;;;5054310;28;20124;-70
2023/03/06 03:53:56;;;;;;;0.90;0.90;;;;;;;;;;5055626;28;20056;-70
2023/03/06 03:56:24;;;;;;;;;;;;;;;;;;5039864;28;20122;-70
2023/03/06 03:58:58;;;;;;;0.10;0.10;;;;;;;;;;5055557;28;20419;-71
2023/03/06 04:01:28;;;;;;;0.80;0.77;;;;;;;;;;5055689;28;20071;-70
2023/03/06 04:03:54;;;;;;;0.10;0.10;;;;;;;;;;5050852;28;20029;-71
2023/03/06 04:06:19;;;;;;;2.55;2.17;;;;;;;;;;5052910;28;20029;-72
2023/03/06 04:08:45;;;;;;;2.20;1.98;;;;;;;;;;5051711;28;20032;-72
2023/03/06 04:11:12;;;;;;;0.55;0.55;;;;;;;;;;5051760;28;20083;-75
2023/03/06 04:13:38;;;;;;;0.10;0.10;;;;;;;;;;5051382;28;20036;-71
2023/03/06 04:16:04;;;;;;;0.47;0.47;;;;;;;;;;5051320;28;20077;-71
2023/03/06 04:18:31;;;;;;;0.25;0.25;;;;;;;;;;5051473;28;20047;-74
2023/03/06 04:21:01;;;;;;;0.40;0.40;;;;;;;;;;5051272;28;20059;-71
2023/03/06 04:23:27;;;;;;;0.10;0.10;;;;;;;;;;5051098;28;20077;-71
2023/03/06 04:25:53;;;;;;;0.13;0.13;;;;;;;;;;5051028;28;20049;-71
2023/03/06 04:28:19;;;;;;;0.20;0.20;;;;;;;;;;5034523;28;20111;-70
2023/03/06 04:30:44;;;;;;;6.88;2.45;;;;;;;;;;5051141;28;20079;-71
2023/03/06 04:33:10;;;;;;;0.10;0.10;;;;;;;;;;5050921;28;20085;-72
2023/03/06 04:35:36;;;;;;;0.10;0.10;;;;;;;;;;5034889;28;20037;-72
2023/03/06 04:38:06;;;;;;;0.30;0.30;;;;;;;;;;5051415;28;20029;-72
2023/03/06 04:40:33;;;;;;;0.25;0.25;;;;;;;;;;5051058;28;20155;-74
2023/03/06 04:42:59;;;;;;;0.10;0.10;;;;;;;;;;5052212;28;20037;-70
2023/03/06 04:45:25;;;;;;;0.82;0.82;;;;;;;;;;5050603;28;20052;-72
2023/03/06 04:47:51;;;;;;;0.30;0.30;;;;;;;;;;5034277;28;20084;-72
2023/03/06 04:50:17;;;;;;;0.10;0.10;;;;;;;;;;5052163;28;20048;-71
2023/03/06 04:52:42;;;;;;;2.35;0.95;;;;;;;;;;5050694;28;20039;-71
2023/03/06 04:55:08;;;;;;;9.73;3.83;;;;;;;;;;5051905;28;20009;-69
2023/03/06 04:57:35;;;;;;;0.30;0.30;;;;;;;;;;5051796;28;20036;-74
2023/03/06 05:00:00;;;;;;;0.10;0.10;;;;;;;;;;5050738;28;20032;-70
2023/03/06 05:02:26;;;;;;;22.05;10.80;;;;;;;;;;5051783;28;20029;-75
2023/03/06 05:04:51;;;;;;;0.32;0.32;;;;;;;;;;5051843;28;20037;-70
2023/03/06 05:07:16;;;;;;;0.30;0.30;;;;;;;;;;5051659;28;20044;-70
2023/03/06 05:09:42;;;;;;;0.20;0.20;;;;;;;;;;5033847;28;20107;-71
2023/03/06 05:12:07;;;;;;;0.20;0.20;;;;;;;;;;5051150;28;20053;-70
2023/03/06 05:14:32;;;;;;;0.17;0.17;;;;;;;;;;5051538;28;20091;-71
2023/03/06 05:16:58;;;;;;;0.20;0.20;;;;;;;;;;5051189;28;20202;-70
2023/03/06 05:19:23;;;;;;;0.30;0.30;;;;;;;;;;5051270;28;20032;-70
2023/03/06 05:21:49;;;;;;;0.63;0.63;;;;;;;;;;5051466;28;20028;-69
2023/03/06 05:24:14;;;;;;;0.13;0.13;;;;;;;;;;5050883;28;20068;-72
2023/03/06 05:26:39;;;;;;;0.45;0.45;;;;;;;;;;5051249;28;20082;-71
2023/03/06 05:29:05;;;;;;;1.10;1.10;;;;;;;;;;5051264;28;20032;-70
2023/03/06 05:31:30;;;;;;;0.20;0.20;;;;;;;;;;5051767;28;20571;-73
2023/03/06 05:33:56;;;;;;;13.45;8.10;;;;;;;;;;5051981;28;20135;-71
2023/03/06 05:36:22;;;;;;;0.25;0.25;;;;;;;;;;5033046;28;20389;-71
2023/03/06 05:38:47;;;;;;;0.20;0.20;;;;;;;;;;5049464;28;20025;-72
2023/03/06 05:41:13;;;;;;;0.57;0.57;;;;;;;;;;5049276;28;20041;-73
2023/03/06 05:43:38;;;;;;;0.10;0.10;;;;;;;;;;5050881;28;20024;-71
2023/03/06 05:46:04;;;;;;;0.20;0.20;;;;;;;;;;5049015;28;20116;-70
2023/03/06 05:48:33;;;;;;;0.75;0.75;;;;;;;;;;5056711;28;20035;-71
2023/03/06 05:51:00;;;;;;;0.10;0.10;;;;;;;;;;5049340;28;20389;-72
2023/03/06 05:53:25;;;;;;;0.35;0.35;;;;;;;;;;5050424;28;20111;-70
2023/03/06 05:55:58;;;;;;;0.20;0.20;;;;;;;;;;5032694;28;20032;-71
2023/03/06 05:58:23;;;;;;;0.20;0.20;;;;;;;;;;5033037;28;20032;-72
2023/03/06 06:00:49;;;;;;;0.40;0.40;;;;;;;;;;5053796;28;20074;-71
2023/03/06 06:03:14;;;;;;;0.30;0.30;;;;;;;;;;5052361;28;20075;-71
2023/03/06 06:05:40;;;;;;;0.68;0.68;;;;;;;;;;5049879;28;20040;-73
2023/03/06 06:08:05;;;;;;;0.20;0.20;;;;;;;;;;5055181;28;20068;-70
2023/03/06 06:10:30;;;;;;;0.20;0.20;;;;;;;;;;5058673;28;20036;-74
2023/03/06 06:12:56;;;;;;;0.22;0.22;;;;;;;;;;5051680;28;20332;-71
2023/03/06 06:15:22;;;;;;;1.13;1.13;;;;;;;;;;5049855;28;20028;-68
2023/03/06 06:17:47;;;;;;;0.30;0.30;;;;;;;;;;5049700;28;20037;-68
2023/03/06 06:20:13;;;;;;;0.20;0.20;;;;;;;;;;5049628;28;20025;-71
2023/03/06 06:22:38;;;;;;;0.10;0.10;;;;;;;;;;5050094;28;20044;-70
2023/03/06 06:25:05;;;;;;;0.43;0.43;;;;;;;;;;5052538;28;20044;-70
2023/03/06 06:27:30;;;;;;;0.82;0.82;;;;;;;;;;5068926;28;20024;-70
2023/03/06 06:29:59;;;;;;;0.40;0.40;;;;;;;;;;5070051;28;20032;-70
2023/03/06 06:32:25;;;;;;;0.68;0.68;;;;;;;;;;5069911;28;20119;-70
2023/03/06 06:34:50;;;;;;;22.55;2.47;;;;;;;;;;5069808;28;20120;-72
2023/03/06 06:37:15;;;;;;;0.30;0.30;;;;;;;;;;5066583;28;20035;-71
2023/03/06 06:39:41;;;;;;;0.20;0.20;;;;;;;;;;5050035;28;20032;-70
2023/03/06 06:42:08;;;;;;;0.30;0.30;;;;;;;;;;5049783;28;20483;-70
2023/03/06 06:44:34;;;;;;;0.20;0.20;;;;;;;;;;5031986;28;20094;-76
2023/03/06 06:47:00;;;;;;;0.10;0.10;;;;;;;;;;5050456;28;20028;-76
2023/03/06 06:49:25;;;;;;;0.10;0.10;;;;;;;;;;5050042;28;20111;-70
2023/03/06 06:51:50;;;;;;;0.15;0.15;;;;;;;;;;5049597;28;20567;-70
2023/03/06 06:54:17;;;;;;;0.20;0.20;;;;;;;;;;5049973;28;20036;-70
2023/03/06 06:56:43;;;;;;;0.10;0.10;;;;;;;;;;5050007;28;20075;-70
2023/03/06 06:59:08;;;;;;;0.70;0.70;;;;;;;;;;5049921;28;20029;-71
2023/03/06 07:01:34;;;;;;;0.38;0.38;;;;;;;;;;5049807;28;20063;-77
2023/03/06 07:03:59;;;;;;;7.13;5.05;;;;;;;;;;5048608;28;20389;-71
2023/03/06 07:06:25;;;;;;;0.10;0.10;;;;;;;;;;5049378;28;20480;-73
2023/03/06 07:08:50;;;;;;;0.15;0.15;;;;;;;;;;5049547;28;20029;-72
2023/03/06 07:11:16;;;;;;;0.10;0.10;;;;;;;;;;5050540;28;20881;-70
2023/03/06 07:13:42;;;;;;;0.10;0.10;;;;;;;;;;5069594;28;20059;-71
2023/03/06 07:16:08;;;;;;;0.70;0.70;;;;;;;;;;5069491;28;20024;-75
2023/03/06 07:18:33;;;;;;;1.08;1.02;;;;;;;;;;5069870;28;20123;-72
2023/03/06 07:20:59;;;;;;;0.40;0.40;;;;;;;;;;5069554;28;20025;-69
2023/03/06 07:23:25;;;;;;;0.13;0.13;;;;;;;;;;5069054;28;20283;-69
2023/03/06 07:25:51;;;;;;;0.68;0.68;;;;;;;;;;5050939;28;20029;-69
2023/03/06 07:28:17;;;;;;;0.10;0.10;;;;;;;;;;5069550;28;20052;-69
2023/03/06 07:30:42;;;;;;;0.65;0.65;;;;;;;;;;5069341;28;20110;-69
2023/03/06 07:33:08;;;;;;;1.55;1.15;;;;;;;;;;5069366;28;20045;-73
2023/03/06 07:35:33;;;;;;;0.20;0.20;;;;;;;;;;5069131;28;20166;-69
2023/03/06 07:37:59;;;;;;;0.10;0.10;;;;;;;;;;5068144;28;20039;-69
2023/03/06 07:40:25;;;;;;;0.22;0.22;;;;;;;;;;5069204;28;20113;-69
2023/03/06 07:42:54;;;;;;;0.20;0.20;;;;;;;;;;5069110;28;20039;-70
2023/03/06 07:45:24;;;;;;;0.10;0.10;;;;;;;;;;5068343;28;20381;-70
2023/03/06 07:47:49;;;;;;;0.10;0.10;;;;;;;;;;5068013;28;20079;-70
2023/03/06 07:50:15;;;;;;;0.20;0.20;;;;;;;;;;5069495;28;20043;-70
2023/03/06 07:52:40;;;;;;;0.65;0.65;;;;;;;;;;5067916;28;20037;-69
2023/03/06 07:55:06;;;;;;;0.10;0.10;;;;;;;;;;5051175;28;20063;-69
2023/03/06 07:57:32;;;;;;;2.22;0.82;;;;;;;;;;5068913;28;20272;-70
2023/03/06 07:59:57;;;;;;;0.10;0.10;;;;;;;;;;5050728;28;20024;-69
2023/03/06 08:02:23;;;;;;;0.75;0.28;;;;;;;;;;5067738;28;20086;-70
2023/03/06 08:04:53;;;;;;;0.10;0.10;;;;;;;;;;5066568;28;20468;-71
2023/03/06 08:07:18;;;;;;;;;;;;;;;;;;5031022;28;20133;-70
2023/03/06 08:09:43;;;;;;;0.10;0.10;;;;;;;;;;5049778;28;19983;-71
2023/03/06 08:12:09;;;;;;;0.10;0.10;;;;;;;;;;5065010;28;20059;-71
2023/03/06 08:14:34;;;;;;;9.27;4.57;;;;;;;;;;5068882;28;20095;-71
2023/03/06 08:17:00;;;;;;;0.20;0.20;;;;;;;;;;5049903;28;20033;-70
2023/03/06 08:19:25;;;;;;;0.10;0.10;;;;;;;;;;5048610;28;20040;-69
2023/03/06 08:21:51;;;;;;;0.17;0.17;;;;;;;;;;5049418;28;20384;-71
2023/03/06 08:24:17;;;;;;;0.35;0.35;;;;;;;;;;5041357;28;20029;-72
2023/03/06 08:26:42;;;;;;;0.70;0.45;;;;;;;;;;5060509;28;20040;-70
2023/03/06 08:29:08;;;;;;;0.28;0.28;;;;;;;;;;5049103;28;20078;-70
2023/03/06 08:31:38;;;;;;;2.65;0.47;;;;;;;;;;5048366;28;20060;-71
2023/03/06 08:34:03;;;;;;;;;;;;;;;;;;5047656;28;20029;-71
2023/03/06 08:36:28;;;;;;;0.43;0.20;;;;;;;;;;5049570;28;20391;-71
2023/03/06 08:38:54;;;;;;;0.40;0.40;;;;;;;;;;5052138;28;20078;-70
2023/03/06 08:41:20;;;;;;;7.68;0.98;;;;;;;;;;5051653;28;20423;-70
2023/03/06 08:43:45;;;;;;;5.50;0.93;;;;;;;;;;5051792;28;20040;-70
2023/03/06 08:46:11;;;;;;;1.63;0.70;;;;;;;;;;5051262;28;20035;-69
2023/03/06 08:48:36;;;;;;;1.67;0.73;;;;;;;;;;5051621;28;20059;-71
2023/03/06 08:51:02;;;;;;;0.47;0.40;;;;;;;;;;5051754;28;20043;-71
2023/03/06 08:53:27;;;;;;;1.75;0.93;;;;;;;;;;5050868;28;20481;-70
2023/03/06 08:55:53;;;;;;;0.38;0.30;;;;;;;;;;5052130;28;20052;-69
2023/03/06 08:58:18;;;;;;;0.38;0.38;;;;;;;;;;5052117;28;20021;-70
2023/03/06 09:00:43;;;;;;;0.90;0.45;;;;;;;;;;5050628;28;20112;-72
2023/03/06 09:03:09;;;;;;;0.90;0.43;;;;;;;;;;5050538;28;20025;-69
2023/03/06 09:05:34;;;;;;;0.32;0.32;;;;;;;;;;5056420;28;20040;-72
2023/03/06 09:08:00;;;;;;;0.28;0.28;;;;;;;;;;5053739;28;20468;-73
2023/03/06 09:10:25;;;;;;;0.55;0.43;;;;;;;;;;5063967;28;20028;-73
2023/03/06 09:12:51;;;;;;;0.13;0.13;;;;;;;;;;5053768;28;20033;-73
2023/03/06 09:15:17;;;;;;;0.63;0.43;;;;;;;;;;5051579;28;20025;-73
2023/03/06 09:17:43;;;;;;;0.20;0.20;;;;;;;;;;5052349;28;20441;-72
2023/03/06 09:20:09;;;;;;;1.00;0.60;;;;;;;;;;5050750;28;20029;-73
2023/03/06 09:22:35;;;;;;;4.13;0.90;;;;;;;;;;5035675;28;20033;-73
2023/03/06 09:25:01;;;;;;;0.65;0.57;;;;;;;;;;5050215;28;20389;-73
2023/03/06 09:27:27;;;;;;;1.27;0.57;;;;;;;;;;5051047;28;20025;-72
2023/03/06 09:29:53;;;;;;;0.20;0.20;;;;;;;;;;5051348;28;20028;-73
2023/03/06 09:32:18;;;;;;;0.10;0.10;;;;;;;;;;5051953;28;20045;-73
2023/03/06 09:34:44;;;;;;;1.83;0.90;;;;;;;;;;5054857;28;20032;-73
2023/03/06 09:37:09;;;;;;;1.92;0.70;;;;;;;;;;5056829;28;20496;-73
2023/03/06 09:39:35;;;;;;;1.45;0.63;;;;;;;;;;5056538;28;20021;-71
2023/03/06 09:42:00;;;;;;;1.13;0.70;;;;;;;;;;5058065;28;20025;-72
2023/03/06 09:44:30;;;;;;;1.70;0.73;;;;;;;;;;5059843;28;20439;-71
2023/03/06 09:46:59;;;;;;;0.20;0.20;;;;;;;;;;5033035;28;20051;-71
2023/03/06 09:49:40;;;;;;;0.30;0.30;;;;;;;;;;5050944;28;20021;-72
2023/03/06 09:52:24;;;;;;;1.05;1.05;;;;;;;;;;5052370;28;20036;-73
2023/03/06 09:54:58;;;;;;;0.10;0.10;;;;;;;;;;5070463;28;20036;-73
2023/03/06 09:57:29;;;;;;;0.10;0.10;;;;;;;;;;5062905;28;20175;-73
2023/03/06 09:59:56;;;;;;;0.10;0.10;;;;;;;;;;5056325;28;20056;-73
2023/03/06 10:02:25;;;;;;;0.10;0.10;;;;;;;;;;5049375;28;20115;-72
2023/03/06 10:04:54;;;;;;;0.10;0.10;;;;;;;;;;5050862;28;20029;-74
2023/03/06 10:07:20;;;;;;;0.10;0.10;;;;;;;;;;5049190;28;20032;-72
2023/03/06 10:09:49;;;;;;;0.10;0.10;;;;;;;;;;5050260;28;20021;-72
2023/03/06 10:12:27;;;;;;;0.10;0.10;;;;;;;;;;5032777;28;20037;-71
2023/03/06 10:14:55;;;;;;;0.10;0.10;;;;;;;;;;5049384;28;20052;-71
2023/03/06 10:17:22;;;;;;;0.20;0.20;;;;;;;;;;5049564;28;20082;-71
2023/03/06 10:19:48;;;;;;;1.52;0.75;;;;;;;;;;5050188;28;20104;-72
2023/03/06 10:22:31;;;;;;;1.08;0.32;;;;;;;;;;5048787;28;20028;-73
2023/03/06 10:25:03;;;;;;;0.22;0.22;;;;;;;;;;5032248;28;20056;-72
2023/03/06 10:27:32;;;;;;;1.08;0.63;;;;;;;;;;5048368;28;20068;-72
2023/03/06 10:30:02;;;;;;;1.42;0.88;;;;;;;;;;5049161;28;20051;-71
2023/03/06 10:32:30;;;;;;;0.50;0.22;;;;;;;;;;5040749;28;20063;-74
2023/03/06 10:34:58;;;;;;;2.15;0.98;;;;;;;;;;5036159;28;20392;-72
2023/03/06 10:37:24;;;;;;;0.50;0.40;;;;;;;;;;5050001;28;20087;-72
2023/03/06 10:40:13;;;;;;;0.20;0.20;;;;;;;;;;5049957;28;20472;-73
2023/03/06 10:42:38;;;;;;;1.20;0.80;;;;;;;;;;5049752;28;20067;-72
2023/03/06 10:45:11;;;;;;;3.00;1.20;;;;;;;;;;5049691;28;20287;-72
2023/03/06 10:47:37;;;;;;;1.73;0.52;;;;;;;;;;5049563;28;20437;-73
2023/03/06 10:50:05;;;;;;;0.10;0.10;;;;;;;;;;5049719;28;20104;-71
2023/03/06 10:52:31;;;;;;;0.20;0.20;;;;;;;;;;5049599;28;20032;-72
2023/03/06 10:55:16;;;;;;;4.22;1.30;;;;;;;;;;5049610;28;20029;-71
2023/03/06 10:57:41;;;;;;;0.30;0.30;;;;;;;;;;5049836;28;20108;-71
2023/03/06 11:00:30;;;;;;;1.38;0.95;;;;;;;;;;5047862;28;20449;-72
2023/03/06 11:03:22;;;;;;;1.17;0.85;;;;;;;;;;5048651;28;20037;-74
2023/03/06 11:05:57;;;;;;;1.35;0.45;;;;;;;;;;5049577;28;20052;-74
2023/03/06 11:08:23;;;;;;;4.18;0.93;;;;;;;;;;5049912;28;20057;-73
2023/03/06 11:10:55;;;;;;;1.70;0.60;;;;;;;;;;5049705;28;20439;-73
2023/03/06 11:13:22;;;;;;;0.10;0.10;;;;;;;;;;5047639;28;20029;-74
2023/03/06 11:16:06;;;;;;;0.50;0.40;;;;;;;;;;5047231;28;20449;-73
2023/03/06 11:18:36;;;;;;;0.82;0.60;;;;;;;;;;5047159;28;20029;-73
2023/03/06 11:21:03;;;;;;;0.30;0.30;;;;;;;;;;5048376;28;20464;-74
2023/03/06 11:23:31;;;;;;;1.55;0.63;;;;;;;;;;5048572;28;20037;-73
2023/03/06 11:26:01;;;;;;;0.20;0.20;;;;;;;;;;5048513;28;20372;-72
2023/03/06 11:28:36;;;;;;;3.40;1.80;;;;;;;;;;5048682;28;20586;-74
2023/03/06 11:31:10;;;;;;;0.93;0.45;;;;;;;;;;5047200;28;20052;-74
2023/03/06 11:33:39;;;;;;;1.40;0.90;;;;;;;;;;5047251;28;20032;-73
2023/03/06 11:36:28;;;;;;;2.55;1.85;;;;;;;;;;5046970;28;20044;-74
2023/03/06 11:38:54;;;;;;;0.13;0.13;;;;;;;;;;5047161;28;20119;-74
2023/03/06 11:41:31;;;;;;;1.83;1.10;;;;;;;;;;5046863;28;20480;-73
2023/03/06 11:44:11;;;;;;;1.15;0.90;;;;;;;;;;5047930;28;20030;-74
2023/03/06 11:46:39;;;;;;;1.60;0.73;;;;;;;;;;5038489;28;20045;-73
2023/03/06 11:49:05;;;;;;;1.65;0.77;;;;;;;;;;5051849;28;20496;-73
2023/03/06 11:51:33;;;;;;;2.30;0.90;;;;;;;;;;5048731;28;20025;-74
2023/03/06 11:53:59;;;;;;;2.63;1.43;;;;;;;;;;5051006;28;20032;-73
2023/03/06 11:56:30;;;;;;;3.28;1.50;;;;;;;;;;5059883;28;20091;-73
2023/03/06 11:59:02;;;;;;;0.10;0.10;;;;;;;;;;5058977;28;20029;-74
2023/03/06 12:01:44;;;;;;;2.20;1.25;;;;;;;;;;5048485;28;20033;-72
2023/03/06 12:04:18;;;;;;;1.98;1.02;;;;;;;;;;5048787;28;20078;-74
2023/03/06 12:06:48;;;;;;;4.13;1.58;;;;;;;;;;5065336;28;20047;-73
2023/03/06 12:09:13;;;;;;;11.65;2.08;;;;;;;;;;5048662;28;20182;-76
2023/03/06 12:12:08;;;;;;;1.00;0.90;;;;;;;;;;5057247;28;20507;-78
2023/03/06 12:14:39;;;;;;;0.20;0.20;;;;;;;;;;5056250;28;20286;-74
2023/03/06 12:17:11;;;;;;;0.28;0.28;;;;;;;;;;5060179;28;20468;-74
2023/03/06 12:19:42;;;;;;;0.47;0.38;;;;;;;;;;5061548;28;20033;-74
2023/03/06 12:22:08;;;;;;;2.15;0.70;;;;;;;;;;5062682;28;20092;-74
2023/03/06 12:24:52;;;;;;;1.30;0.73;;;;;;;;;;5059456;28;20029;-72
2023/03/06 12:27:31;;;;;;;0.65;0.38;;;;;;;;;;5061233;28;20025;-74
2023/03/06 12:29:56;;;;;;;0.63;0.40;;;;;;;;;;5061057;28;20058;-74
2023/03/06 12:32:35;;;;;;;2.28;1.23;;;;;;;;;;5061271;28;20048;-74
2023/03/06 12:35:22;;;;;;;0.20;0.20;;;;;;;;;;5062107;28;20755;-73
2023/03/06 12:38:17;;;;;;;8.43;2.78;;;;;;;;;;5062777;28;20380;-74
2023/03/06 12:40:45;;;;;;;2.20;1.13;;;;;;;;;;5063685;28;20039;-74
2023/03/06 12:43:29;;;;;;;1.08;0.45;;;;;;;;;;5062437;28;20039;-75
2023/03/06 12:45:57;;;;;;;0.52;0.32;;;;;;;;;;5044763;28;20047;-75
2023/03/06 12:48:26;;;;;;;0.52;0.40;;;;;;;;;;5062036;28;20025;-74
2023/03/06 12:50:52;;;;;;;7.65;0.63;;;;;;;;;;5060349;28;20025;-75
2023/03/06 12:53:38;;;;;;;2.95;0.52;;;;;;;;;;5062278;28;20127;-73
2023/03/06 12:56:03;;;;;;;1.95;0.70;;;;;;;;;;5076969;28;20040;-75
2023/03/06 12:58:29;;;;;;;1.40;0.80;;;;;;;;;;5060445;28;20028;-74
2023/03/06 13:00:56;;;;;;;0.32;0.32;;;;;;;;;;5060558;28;20480;-74
2023/03/06 13:03:34;;;;;;;2.60;0.98;;;;;;;;;;5059849;28;20099;-73
2023/03/06 13:06:02;;;;;;;0.57;0.52;;;;;;;;;;5045987;28;20040;-74
2023/03/06 13:08:37;;;;;;;0.63;0.47;;;;;;;;;;5060271;28;20451;-74
2023/03/06 13:11:21;;;;;;;4.20;1.00;;;;;;;;;;5062433;28;20111;-74
2023/03/06 13:13:47;;;;;;;0.10;0.10;;;;;;;;;;5060295;28;20055;-74
2023/03/06 13:16:21;;;;;;;0.65;0.47;;;;;;;;;;5050850;28;20032;-73
2023/03/06 13:19:05;;;;;;;0.45;0.45;;;;;;;;;;5059652;28;20017;-74
2023/03/06 13:21:40;;;;;;;1.50;0.50;;;;;;;;;;5060375;28;20484;-73
2023/03/06 13:24:13;;;;;;;1.45;0.90;;;;;;;;;;5068855;28;20036;-73
2023/03/06 13:26:39;;;;;;;0.38;0.30;;;;;;;;;;5068967;28;20041;-74
2023/03/06 13:29:24;;;;;;;1.23;0.47;;;;;;;;;;5070362;28;20441;-74
2023/03/06 13:31:52;;;;;;;0.20;0.20;;;;;;;;;;5070569;28;20040;-74
2023/03/06 13:34:30;;;;;;;0.20;0.20;;;;;;;;;;5071046;28;20480;-74
2023/03/06 13:37:24;;;;;;;0.22;0.22;;;;;;;;;;5070510;28;20111;-74
2023/03/06 13:39:52;;;;;;;2.13;1.95;;;;;;;;;;5070544;28;20147;-73
2023/03/06 13:42:34;;;;;;;0.60;0.52;;;;;;;;;;5071149;28;20060;-73
2023/03/06 13:45:20;;;;;;;1.10;0.75;;;;;;;;;;5070996;28;20495;-74
2023/03/06 13:47:56;;;;;;;0.32;0.32;;;;;;;;;;5066052;28;20041;-75
2023/03/06 13:50:35;;;;;;;4.07;0.55;;;;;;;;;;5069687;28;20762;-72
2023/03/06 13:53:00;;;;;;;;;;;;;;;;;;5071401;28;20388;-75
2023/03/06 13:55:44;;;;;;;0.20;0.20;;;;;;;;;;5070451;28;19908;-75
2023/03/06 13:58:28;;;;;;;0.10;0.10;;;;;;;;;;5071075;28;20407;-75
2023/03/06 14:01:03;;;;;;;0.10;0.10;;;;;;;;;;5070045;28;20056;-74
2023/03/06 14:03:28;;;;;;;0.10;0.10;;;;;;;;;;5070454;28;20066;-74
2023/03/06 14:05:54;;;;;;;4.28;0.50;;;;;;;;;;5070687;28;20431;-73
2023/03/06 14:08:21;;;;;;;2.17;0.60;;;;;;;;;;5070667;28;20421;-74
2023/03/06 14:10:48;;;;;;;0.50;0.50;;;;;;;;;;5070382;28;20250;-74
2023/03/06 14:13:33;;;;;;;1.27;0.65;;;;;;;;;;5068865;28;20063;-74
2023/03/06 14:15:58;;;;;;;0.35;0.35;;;;;;;;;;5070669;28;20102;-74
2023/03/06 14:18:24;;;;;;;0.65;0.50;;;;;;;;;;5064606;28;20403;-74
2023/03/06 14:20:55;;;;;;;0.20;0.20;;;;;;;;;;5061542;28;20036;-74
2023/03/06 14:23:20;;;;;;;1.33;0.70;;;;;;;;;;5049637;28;20040;-75
2023/03/06 14:25:47;;;;;;;0.45;0.30;;;;;;;;;;5054352;28;20041;-73
2023/03/06 14:28:23;;;;;;;0.10;0.10;;;;;;;;;;5050575;28;20491;-74
2023/03/06 14:30:49;;;;;;;1.83;1.70;;;;;;;;;;5050263;28;20476;-73
2023/03/06 14:33:33;;;;;;;0.30;0.30;;;;;;;;;;5050029;28;20052;-73
2023/03/06 14:36:00;;;;;;;1.73;0.38;;;;;;;;;;5049682;28;20054;-76
2023/03/06 14:38:26;;;;;;;0.10;0.10;;;;;;;;;;5050120;28;20021;-73
2023/03/06 14:40:52;;;;;;;0.30;0.30;;;;;;;;;;5049956;28;20036;-74
2023/03/06 14:43:22;;;;;;;0.68;0.50;;;;;;;;;;5048597;28;20025;-74
2023/03/06 14:45:48;;;;;;;0.13;0.13;;;;;;;;;;5049756;28;20040;-73
2023/03/06 14:48:14;;;;;;;2.20;0.52;;;;;;;;;;5049731;28;20049;-75
2023/03/06 14:50:40;;;;;;;0.55;0.13;;;;;;;;;;5049704;28;20498;-75